SBCT/CWB METAR and TAF weather

Enter ICAO airport designator
Station Type Date Time Source
SBCT METAR 2022/01/19 19:00 UTC NOAA

SBCT 191900Z 11008KT 080V150 9999 BKN040 29/22 Q1019


Station Type Date Time Source
SBCT Decoded METAR 2022/01/19 19:00 UTC NOAA

Curitiba Aeroporto , Brazil (SBCT) 25-31S 049-10W 908M
Jan 19, 2022 - 02:00 PM EST / 2022.01.19 1900 UTC
Wind: from the ESE (110 degrees) at 9 MPH (8 KT) (direction variable):0
Visibility: greater than 7 mile(s):0
Sky conditions: mostly cloudy
Temperature: 84 F (29 C)
Dew Point: 71 F (22 C)
Relative Humidity: 65%
Pressure (altimeter): 30.09 in. Hg (1019 hPa)
ob: SBCT 191900Z 11008KT 080V150 9999 BKN040 29/22 Q1019
cycle: 19

Station Type Date Time Source
SBCT TAF 2022/01/19 18:35 UTC NOAA

TAF SBCT 191500Z 1918/2018 08005KT 9999 SCT035 FEW040TCU TN20/2000Z TX25/2016Z
TEMPO 1918/1921 4000 TSRA BKN008 FEW035CB
BECMG 1922/1924 FEW010 SCT030
BECMG 2007/2009 BKN010
BECMG 2012/2014 SCT030
RMK PDU

Example: see airport list